sensor_id;sensor_type;location;lat;lon;timestamp;pressure;altitude;pressure_sealevel;temperature;humidity
1371;BME280;14306;49.942;11.570;2023-05-23T00:01:13;97062.66;;;18.86;71.21
1371;BME280;14306;49.942;11.570;2023-05-23T00:03:43;97069.00;;;18.90;71.02
1371;BME280;14306;49.942;11.570;2023-05-23T00:06:11;97067.44;;;18.70;71.46
1371;BME280;14306;49.942;11.570;2023-05-23T00:08:40;97076.38;;;18.86;71.49
1371;BME280;14306;49.942;11.570;2023-05-23T00:11:08;97079.31;;;18.55;72.80
1371;BME280;14306;49.942;11.570;2023-05-23T00:13:36;97083.88;;;18.29;74.05
1371;BME280;14306;49.942;11.570;2023-05-23T00:16:06;97061.44;;;18.42;73.08
1371;BME280;14306;49.942;11.570;2023-05-23T00:18:37;97072.34;;;18.58;72.66
1371;BME280;14306;49.942;11.570;2023-05-23T00:21:09;97076.72;;;18.62;72.17
1371;BME280;14306;49.942;11.570;2023-05-23T00:23:36;97087.75;;;18.66;72.47
1371;BME280;14306;49.942;11.570;2023-05-23T00:26:07;97081.53;;;18.69;72.09
1371;BME280;14306;49.942;11.570;2023-05-23T00:28:36;97080.13;;;18.56;72.11
1371;BME280;14306;49.942;11.570;2023-05-23T00:31:05;97090.28;;;18.55;72.70
1371;BME280;14306;49.942;11.570;2023-05-23T00:33:33;97087.28;;;18.60;72.39
1371;BME280;14306;49.942;11.570;2023-05-23T00:36:04;97092.91;;;18.67;71.93
1371;BME280;14306;49.942;11.570;2023-05-23T00:38:32;97081.41;;;18.62;72.05
1371;BME280;14306;49.942;11.570;2023-05-23T00:41:00;97099.94;;;18.87;71.21
1371;BME280;14306;49.942;11.570;2023-05-23T00:43:29;97102.25;;;19.08;70.56
1371;BME280;14306;49.942;11.570;2023-05-23T00:45:58;97104.81;;;19.20;70.37
1371;BME280;14306;49.942;11.570;2023-05-23T00:48:27;97112.84;;;19.29;69.95
1371;BME280;14306;49.942;11.570;2023-05-23T00:50:57;97111.13;;;19.43;69.20
1371;BME280;14306;49.942;11.570;2023-05-23T00:53:26;97107.94;;;19.41;69.26
1371;BME280;14306;49.942;11.570;2023-05-23T00:55:55;97104.66;;;19.32;69.74
1371;BME280;14306;49.942;11.570;2023-05-23T00:58:23;97101.94;;;19.36;69.40
1371;BME280;14306;49.942;11.570;2023-05-23T01:00:52;97103.00;;;19.50;69.01
1371;BME280;14306;49.942;11.570;2023-05-23T01:03:21;97107.91;;;19.64;68.68
1371;BME280;14306;49.942;11.570;2023-05-23T01:05:54;97101.50;;;19.56;68.91
1371;BME280;14306;49.942;11.570;2023-05-23T01:08:23;97105.94;;;19.64;68.73
1371;BME280;14306;49.942;11.570;2023-05-23T01:10:52;97109.06;;;19.63;68.88
1371;BME280;14306;49.942;11.570;2023-05-23T01:13:26;97101.34;;;19.72;68.57
1371;BME280;14306;49.942;11.570;2023-05-23T01:16:03;97099.78;;;19.71;68.52
1371;BME280;14306;49.942;11.570;2023-05-23T01:18:37;97107.31;;;19.77;68.28
1371;BME280;14306;49.942;11.570;2023-05-23T01:21:10;97101.09;;;19.80;68.45
1371;BME280;14306;49.942;11.570;2023-05-23T01:24:01;97095.63;;;19.58;69.09
1371;BME280;14306;49.942;11.570;2023-05-23T01:26:42;97095.97;;;19.53;69.52
1371;BME280;14306;49.942;11.570;2023-05-23T01:29:28;97093.69;;;19.58;69.40
1371;BME280;14306;49.942;11.570;2023-05-23T01:32:01;97094.22;;;19.67;69.20
1371;BME280;14306;49.942;11.570;2023-05-23T01:34:30;97094.28;;;19.71;68.94
1371;BME280;14306;49.942;11.570;2023-05-23T01:37:00;97091.25;;;19.53;69.29
1371;BME280;14306;49.942;11.570;2023-05-23T01:39:28;97090.25;;;19.65;68.79
1371;BME280;14306;49.942;11.570;2023-05-23T01:41:56;97084.75;;;19.65;68.49
1371;BME280;14306;49.942;11.570;2023-05-23T01:44:26;97088.34;;;19.43;68.82
1371;BME280;14306;49.942;11.570;2023-05-23T01:46:54;97077.69;;;19.64;68.72
1371;BME280;14306;49.942;11.570;2023-05-23T01:49:25;97083.75;;;19.50;68.89
1371;BME280;14306;49.942;11.570;2023-05-23T01:51:53;97091.91;;;19.69;68.31
1371;BME280;14306;49.942;11.570;2023-05-23T01:54:22;97080.34;;;19.60;68.48
1371;BME280;14306;49.942;11.570;2023-05-23T01:56:50;97083.44;;;19.55;68.75
1371;BME280;14306;49.942;11.570;2023-05-23T01:59:19;97087.97;;;19.70;68.43
1371;BME280;14306;49.942;11.570;2023-05-23T02:01:48;97081.75;;;19.73;68.25
1371;BME280;14306;49.942;11.570;2023-05-23T02:04:17;97086.50;;;19.76;67.89
1371;BME280;14306;49.942;11.570;2023-05-23T02:06:45;97089.66;;;19.52;68.69
1371;BME280;14306;49.942;11.570;2023-05-23T02:09:13;97088.34;;;19.69;68.28
1371;BME280;14306;49.942;11.570;2023-05-23T02:11:42;97083.69;;;19.73;68.04
1371;BME280;14306;49.942;11.570;2023-05-23T02:14:10;97081.97;;;19.61;68.40
1371;BME280;14306;49.942;11.570;2023-05-23T02:16:39;97079.88;;;19.55;68.60
1371;BME280;14306;49.942;11.570;2023-05-23T02:19:08;97084.25;;;19.56;68.54
1371;BME280;14306;49.942;11.570;2023-05-23T02:21:37;97079.50;;;19.56;68.56
1371;BME280;14306;49.942;11.570;2023-05-23T02:24:05;97083.47;;;19.59;68.44
1371;BME280;14306;49.942;11.570;2023-05-23T02:26:33;97086.66;;;19.61;68.21
1371;BME280;14306;49.942;11.570;2023-05-23T02:29:01;97087.38;;;19.58;68.66
1371;BME280;14306;49.942;11.570;2023-05-23T02:31:30;97086.44;;;19.47;69.16
1371;BME280;14306;49.942;11.570;2023-05-23T02:33:58;97097.06;;;19.48;69.84
1371;BME280;14306;49.942;11.570;2023-05-23T02:36:27;97100.53;;;19.45;69.98
1371;BME280;14306;49.942;11.570;2023-05-23T02:38:55;97107.56;;;19.43;70.00
1371;BME280;14306;49.942;11.570;2023-05-23T02:41:24;97095.81;;;19.42;70.21
1371;BME280;14306;49.942;11.570;2023-05-23T02:43:52;97105.66;;;19.47;70.08
1371;BME280;14306;49.942;11.570;2023-05-23T02:46:21;97096.41;;;19.32;70.92
1371;BME280;14306;49.942;11.570;2023-05-23T02:48:49;97099.97;;;19.33;70.38
1371;BME280;14306;49.942;11.570;2023-05-23T02:51:17;97110.13;;;19.09;70.95
1371;BME280;14306;49.942;11.570;2023-05-23T02:53:46;97112.75;;;19.02;71.25
1371;BME280;14306;49.942;11.570;2023-05-23T02:56:15;97118.25;;;19.02;71.44
1371;BME280;14306;49.942;11.570;2023-05-23T02:58:44;97110.03;;;18.83;71.77
1371;BME280;14306;49.942;11.570;2023-05-23T03:01:12;97120.72;;;18.88;71.92
1371;BME280;14306;49.942;11.570;2023-05-23T03:03:40;97112.84;;;18.87;71.78
1371;BME280;14306;49.942;11.570;2023-05-23T03:06:09;97116.09;;;18.92;72.19
1371;BME280;14306;49.942;11.570;2023-05-23T03:08:40;97116.91;;;18.74;72.30
1371;BME280;14306;49.942;11.570;2023-05-23T03:11:10;97120.22;;;18.83;72.27
1371;BME280;14306;49.942;11.570;2023-05-23T03:13:38;97112.78;;;18.83;72.37
1371;BME280;14306;49.942;11.570;2023-05-23T03:16:06;97114.94;;;18.74;72.57
1371;BME280;14306;49.942;11.570;2023-05-23T03:18:34;97115.13;;;18.62;73.29
1371;BME280;14306;49.942;11.570;2023-05-23T03:21:03;97124.28;;;18.70;72.42
1371;BME280;14306;49.942;11.570;2023-05-23T03:23:31;97131.88;;;18.76;72.34
1371;BME280;14306;49.942;11.570;2023-05-23T03:25:59;97131.00;;;18.72;72.51
1371;BME280;14306;49.942;11.570;2023-05-23T03:28:29;97133.81;;;18.76;72.89
1371;BME280;14306;49.942;11.570;2023-05-23T03:30:57;97143.72;;;18.61;73.26
1371;BME280;14306;49.942;11.570;2023-05-23T03:33:26;97136.91;;;18.36;74.13
1371;BME280;14306;49.942;11.570;2023-05-23T03:35:54;97135.84;;;18.60;73.54
1371;BME280;14306;49.942;11.570;2023-05-23T03:38:23;97152.16;;;18.72;73.16
1371;BME280;14306;49.942;11.570;2023-05-23T03:40:52;97156.78;;;18.68;72.97
1371;BME280;14306;49.942;11.570;2023-05-23T03:43:20;97152.41;;;18.63;73.19
1371;BME280;14306;49.942;11.570;2023-05-23T03:45:49;97158.13;;;18.77;73.46
1371;BME280;14306;49.942;11.570;2023-05-23T03:48:18;97152.00;;;18.65;73.78
1371;BME280;14306;49.942;11.570;2023-05-23T03:50:46;97163.56;;;18.93;73.42
1371;BME280;14306;49.942;11.570;2023-05-23T03:53:14;97152.31;;;18.60;75.28
1371;BME280;14306;49.942;11.570;2023-05-23T03:55:42;97156.41;;;18.88;74.33
1371;BME280;14306;49.942;11.570;2023-05-23T03:58:11;97155.38;;;18.96;74.08
1371;BME280;14306;49.942;11.570;2023-05-23T04:00:40;97165.44;;;18.89;74.46
1371;BME280;14306;49.942;11.570;2023-05-23T04:03:10;97165.44;;;18.89;73.99
1371;BME280;14306;49.942;11.570;2023-05-23T04:05:40;97168.41;;;18.80;74.20
1371;BME280;14306;49.942;11.570;2023-05-23T04:08:09;97172.00;;;18.84;74.84
1371;BME280;14306;49.942;11.570;2023-05-23T04:10:37;97161.84;;;18.85;74.25
1371;BME280;14306;49.942;11.570;2023-05-23T04:13:06;97170.41;;;19.02;73.85
1371;BME280;14306;49.942;11.570;2023-05-23T04:15:36;97177.16;;;19.08;73.65
1371;BME280;14306;49.942;11.570;2023-05-23T04:18:06;97180.09;;;19.38;73.07
1371;BME280;14306;49.942;11.570;2023-05-23T04:20:36;97190.34;;;19.64;71.54
1371;BME280;14306;49.942;11.570;2023-05-23T04:23:05;97185.06;;;19.52;71.86
1371;BME280;14306;49.942;11.570;2023-05-23T04:25:33;97189.22;;;19.68;71.18
1371;BME280;14306;49.942;11.570;2023-05-23T04:28:02;97195.84;;;19.64;71.44
1371;BME280;14306;49.942;11.570;2023-05-23T04:30:32;97196.59;;;19.61;71.30
1371;BME280;14306;49.942;11.570;2023-05-23T04:33:01;97197.38;;;19.61;71.36
1371;BME280;14306;49.942;11.570;2023-05-23T04:35:29;97195.31;;;20.03;70.57
1371;BME280;14306;49.942;11.570;2023-05-23T04:38:01;97201.16;;;20.54;68.64
1371;BME280;14306;49.942;11.570;2023-05-23T04:40:29;97207.88;;;20.86;67.38
1371;BME280;14306;49.942;11.570;2023-05-23T04:42:58;97205.41;;;20.77;67.29
1371;BME280;14306;49.942;11.570;2023-05-23T04:45:26;97205.56;;;20.58;67.58
1371;BME280;14306;49.942;11.570;2023-05-23T04:47:55;97200.53;;;20.67;67.21
1371;BME280;14306;49.942;11.570;2023-05-23T04:50:24;97220.25;;;20.99;65.93
1371;BME280;14306;49.942;11.570;2023-05-23T04:52:54;97212.47;;;20.75;66.65
1371;BME280;14306;49.942;11.570;2023-05-23T04:55:24;97206.94;;;20.75;66.60
1371;BME280;14306;49.942;11.570;2023-05-23T04:57:53;97220.25;;;20.69;66.74
1371;BME280;14306;49.942;11.570;2023-05-23T05:00:22;97220.13;;;20.59;67.30
1371;BME280;14306;49.942;11.570;2023-05-23T05:02:51;97214.94;;;20.28;68.42
1371;BME280;14306;49.942;11.570;2023-05-23T05:05:19;97222.66;;;20.45;68.05
1371;BME280;14306;49.942;11.570;2023-05-23T05:07:48;97224.25;;;20.46;68.22
1371;BME280;14306;49.942;11.570;2023-05-23T05:10:17;97223.78;;;20.40;68.52
1371;BME280;14306;49.942;11.570;2023-05-23T05:12:47;97231.25;;;20.69;67.37
1371;BME280;14306;49.942;11.570;2023-05-23T05:15:17;97221.69;;;20.60;67.86
1371;BME280;14306;49.942;11.570;2023-05-23T05:17:47;97230.44;;;20.65;67.41
1371;BME280;14306;49.942;11.570;2023-05-23T05:20:15;97223.47;;;20.75;67.17
1371;BME280;14306;49.942;11.570;2023-05-23T05:22:45;97220.44;;;20.83;67.62
1371;BME280;14306;49.942;11.570;2023-05-23T05:25:14;97226.50;;;21.29;65.67
1371;BME280;14306;49.942;11.570;2023-05-23T05:27:42;97210.41;;;21.34;65.49
1371;BME280;14306;49.942;11.570;2023-05-23T05:30:13;97229.16;;;21.58;64.46
1371;BME280;14306;49.942;11.570;2023-05-23T05:32:42;97233.56;;;21.66;64.20
1371;BME280;14306;49.942;11.570;2023-05-23T05:35:12;97237.78;;;21.53;64.46
1371;BME280;14306;49.942;11.570;2023-05-23T05:37:41;97235.13;;;21.64;64.38
1371;BME280;14306;49.942;11.570;2023-05-23T05:40:10;97235.00;;;21.93;62.96
1371;BME280;14306;49.942;11.570;2023-05-23T05:42:39;97237.38;;;21.91;63.92
1371;BME280;14306;49.942;11.570;2023-05-23T05:45:08;97229.97;;;22.02;62.87
1371;BME280;14306;49.942;11.570;2023-05-23T05:47:39;97238.97;;;21.92;63.87
1371;BME280;14306;49.942;11.570;2023-05-23T05:50:09;97226.03;;;22.03;63.35
1371;BME280;14306;49.942;11.570;2023-05-23T05:52:37;97231.63;;;22.14;63.21
1371;BME280;14306;49.942;11.570;2023-05-23T05:55:08;97233.91;;;22.01;63.97
1371;BME280;14306;49.942;11.570;2023-05-23T05:57:38;97241.59;;;22.29;63.94
1371;BME280;14306;49.942;11.570;2023-05-23T06:00:08;97241.84;;;22.10;64.32
1371;BME280;14306;49.942;11.570;2023-05-23T06:02:41;97240.91;;;21.88;65.22
1371;BME280;14306;49.942;11.570;2023-05-23T06:05:13;97237.50;;;21.65;65.58
1371;BME280;14306;49.942;11.570;2023-05-23T06:07:43;97244.53;;;21.59;65.69
1371;BME280;14306;49.942;11.570;2023-05-23T06:10:11;97234.09;;;21.39;66.69
1371;BME280;14306;49.942;11.570;2023-05-23T06:12:40;97247.19;;;21.49;66.40
1371;BME280;14306;49.942;11.570;2023-05-23T06:15:09;97243.19;;;21.79;65.49
1371;BME280;14306;49.942;11.570;2023-05-23T06:17:41;97253.72;;;22.68;63.08
1371;BME280;14306;49.942;11.570;2023-05-23T06:20:11;97249.41;;;22.78;62.32
1371;BME280;14306;49.942;11.570;2023-05-23T06:22:40;97261.16;;;23.39;60.52
1371;BME280;14306;49.942;11.570;2023-05-23T06:25:08;97262.09;;;24.03;58.46
1371;BME280;14306;49.942;11.570;2023-05-23T06:27:38;97267.75;;;25.48;54.71
1371;BME280;14306;49.942;11.570;2023-05-23T06:30:08;97265.94;;;25.82;51.88
1371;BME280;14306;49.942;11.570;2023-05-23T06:32:37;97267.91;;;25.96;51.44
1371;BME280;14306;49.942;11.570;2023-05-23T06:35:08;97284.63;;;26.84;49.31
1371;BME280;14306;49.942;11.570;2023-05-23T06:37:37;97276.28;;;27.18;48.87
1371;BME280;14306;49.942;11.570;2023-05-23T06:40:10;97296.66;;;28.77;43.81
1371;BME280;14306;49.942;11.570;2023-05-23T06:42:40;97311.78;;;29.23;43.01
1371;BME280;14306;49.942;11.570;2023-05-23T06:45:09;97321.63;;;30.05;40.13
1371;BME280;14306;49.942;11.570;2023-05-23T06:47:42;97263.66;;;28.00;43.91
1371;BME280;14306;49.942;11.570;2023-05-23T06:50:13;97282.69;;;28.31;43.58
1371;BME280;14306;49.942;11.570;2023-05-23T06:52:46;97295.59;;;29.14;42.04
1371;BME280;14306;49.942;11.570;2023-05-23T06:55:16;97307.28;;;29.48;40.47
1371;BME280;14306;49.942;11.570;2023-05-23T06:57:45;97272.41;;;27.72;43.71
1371;BME280;14306;49.942;11.570;2023-05-23T07:00:17;97263.38;;;26.60;46.46
1371;BME280;14306;49.942;11.570;2023-05-23T07:02:47;97260.69;;;26.02;48.21
1371;BME280;14306;49.942;11.570;2023-05-23T07:05:17;97256.59;;;25.59;49.12
1371;BME280;14306;49.942;11.570;2023-05-23T07:07:46;97270.69;;;25.06;50.93
1371;BME280;14306;49.942;11.570;2023-05-23T07:10:15;97267.97;;;24.85;51.61
1371;BME280;14306;49.942;11.570;2023-05-23T07:12:43;97263.66;;;24.49;52.51
1371;BME280;14306;49.942;11.570;2023-05-23T07:15:12;97273.19;;;24.34;52.78
1371;BME280;14306;49.942;11.570;2023-05-23T07:17:42;97269.59;;;23.92;54.22
1371;BME280;14306;49.942;11.570;2023-05-23T07:20:11;97254.91;;;23.63;55.30
1371;BME280;14306;49.942;11.570;2023-05-23T07:22:42;97278.63;;;23.61;55.87
1371;BME280;14306;49.942;11.570;2023-05-23T07:25:11;97271.97;;;24.04;54.83
1371;BME280;14306;49.942;11.570;2023-05-23T07:27:40;97268.50;;;23.04;57.34
1371;BME280;14306;49.942;11.570;2023-05-23T07:30:09;97276.97;;;23.49;56.49
1371;BME280;14306;49.942;11.570;2023-05-23T07:32:38;97276.41;;;23.02;57.81
1371;BME280;14306;49.942;11.570;2023-05-23T07:35:07;97275.75;;;23.29;56.97
1371;BME280;14306;49.942;11.570;2023-05-23T07:37:37;97277.34;;;23.30;56.58
1371;BME280;14306;49.942;11.570;2023-05-23T07:40:07;97271.94;;;22.83;57.88
1371;BME280;14306;49.942;11.570;2023-05-23T07:42:36;97281.13;;;23.01;57.78
1371;BME280;14306;49.942;11.570;2023-05-23T07:45:06;97278.38;;;23.05;57.78
1371;BME280;14306;49.942;11.570;2023-05-23T07:47:35;97279.00;;;22.74;58.32
1371;BME280;14306;49.942;11.570;2023-05-23T07:50:05;97278.78;;;23.07;57.38
1371;BME280;14306;49.942;11.570;2023-05-23T07:52:34;97284.09;;;23.47;56.01
1371;BME280;14306;49.942;11.570;2023-05-23T07:55:03;97285.63;;;23.30;55.92
1371;BME280;14306;49.942;11.570;2023-05-23T07:57:35;97284.94;;;22.76;56.83
1371;BME280;14306;49.942;11.570;2023-05-23T08:00:04;97278.47;;;23.22;55.82
1371;BME280;14306;49.942;11.570;2023-05-23T08:02:35;97287.13;;;23.14;55.65
1371;BME280;14306;49.942;11.570;2023-05-23T08:05:05;97301.66;;;24.14;52.78
1371;BME280;14306;49.942;11.570;2023-05-23T08:07:34;97299.28;;;24.51;51.39
1371;BME280;14306;49.942;11.570;2023-05-23T08:10:04;97310.69;;;24.98;49.54
1371;BME280;14306;49.942;11.570;2023-05-23T08:12:35;97329.00;;;25.89;47.10
1371;BME280;14306;49.942;11.570;2023-05-23T08:15:04;97319.81;;;25.92;46.02
1371;BME280;14306;49.942;11.570;2023-05-23T08:17:35;97322.94;;;26.08;45.62
1371;BME280;14306;49.942;11.570;2023-05-23T08:20:04;97324.31;;;25.75;45.33
1371;BME280;14306;49.942;11.570;2023-05-23T08:22:36;97332.06;;;26.09;45.06
1371;BME280;14306;49.942;11.570;2023-05-23T08:25:05;97330.88;;;26.06;44.98
1371;BME280;14306;49.942;11.570;2023-05-23T08:27:36;97337.69;;;26.49;44.33
1371;BME280;14306;49.942;11.570;2023-05-23T08:30:06;97343.44;;;26.79;43.31
1371;BME280;14306;49.942;11.570;2023-05-23T08:32:35;97325.97;;;25.55;45.76
1371;BME280;14306;49.942;11.570;2023-05-23T08:35:05;97328.94;;;25.92;44.06
1371;BME280;14306;49.942;11.570;2023-05-23T08:37:35;97328.72;;;25.62;44.33
1371;BME280;14306;49.942;11.570;2023-05-23T08:40:07;97338.47;;;25.99;44.16
1371;BME280;14306;49.942;11.570;2023-05-23T08:42:43;97339.50;;;26.26;43.62
1371;BME280;14306;49.942;11.570;2023-05-23T08:45:12;97324.75;;;25.67;44.28
1371;BME280;14306;49.942;11.570;2023-05-23T08:47:43;97338.28;;;25.58;44.95
1371;BME280;14306;49.942;11.570;2023-05-23T08:50:13;97354.38;;;26.97;42.29
1371;BME280;14306;49.942;11.570;2023-05-23T08:52:51;97366.88;;;27.19;40.86
1371;BME280;14306;49.942;11.570;2023-05-23T08:55:23;97378.47;;;27.14;41.13
1371;BME280;14306;49.942;11.570;2023-05-23T08:57:56;97349.44;;;26.20;42.82
1371;BME280;14306;49.942;11.570;2023-05-23T09:00:27;97352.47;;;25.74;43.68
1371;BME280;14306;49.942;11.570;2023-05-23T09:02:56;97364.59;;;26.05;43.20
1371;BME280;14306;49.942;11.570;2023-05-23T09:05:25;97366.25;;;25.99;44.00
1371;BME280;14306;49.942;11.570;2023-05-23T09:07:55;97374.66;;;26.46;42.91
1371;BME280;14306;49.942;11.570;2023-05-23T09:10:24;97411.47;;;27.89;39.34
1371;BME280;14306;49.942;11.570;2023-05-23T09:12:57;97415.75;;;28.54;37.08
1371;BME280;14306;49.942;11.570;2023-05-23T09:15:26;97398.00;;;27.81;37.71
1371;BME280;14306;49.942;11.570;2023-05-23T09:17:59;97407.38;;;28.27;36.58
1371;BME280;14306;49.942;11.570;2023-05-23T09:20:30;97402.41;;;28.12;36.78
1371;BME280;14306;49.942;11.570;2023-05-23T09:22:59;97376.28;;;26.91;38.08
1371;BME280;14306;49.942;11.570;2023-05-23T09:25:29;97379.25;;;27.14;38.28
1371;BME280;14306;49.942;11.570;2023-05-23T09:28:00;97418.47;;;29.10;35.69
1371;BME280;14306;49.942;11.570;2023-05-23T09:30:33;97479.56;;;30.88;32.71
1371;BME280;14306;49.942;11.570;2023-05-23T09:33:03;97472.59;;;31.28;31.51
1371;BME280;14306;49.942;11.570;2023-05-23T09:35:32;97513.50;;;32.59;29.74
1371;BME280;14306;49.942;11.570;2023-05-23T09:38:00;97467.63;;;31.03;31.37
1371;BME280;14306;49.942;11.570;2023-05-23T09:40:30;97519.94;;;33.10;28.33
1371;BME280;14306;49.942;11.570;2023-05-23T09:43:04;97541.47;;;33.88;27.49
1371;BME280;14306;49.942;11.570;2023-05-23T09:45:34;97514.72;;;32.71;28.87
1371;BME280;14306;49.942;11.570;2023-05-23T09:48:03;97496.13;;;31.78;30.64
1371;BME280;14306;49.942;11.570;2023-05-23T09:50:32;97469.50;;;30.74;31.00
1371;BME280;14306;49.942;11.570;2023-05-23T09:53:01;97461.13;;;30.55;31.46
1371;BME280;14306;49.942;11.570;2023-05-23T09:55:30;97468.56;;;30.97;31.66
1371;BME280;14306;49.942;11.570;2023-05-23T09:58:00;97471.88;;;30.56;31.69
1371;BME280;14306;49.942;11.570;2023-05-23T10:00:33;97471.53;;;30.90;30.68
1371;BME280;14306;49.942;11.570;2023-05-23T10:03:09;97470.03;;;30.50;31.45
1371;BME280;14306;49.942;11.570;2023-05-23T10:05:44;97427.91;;;28.67;34.31
1371;BME280;14306;49.942;11.570;2023-05-23T10:08:17;97398.97;;;27.67;36.62
1371;BME280;14306;49.942;11.570;2023-05-23T10:11:28;97362.78;;;26.42;38.66
1371;BME280;14306;49.942;11.570;2023-05-23T10:14:05;97406.06;;;27.38;37.65
1371;BME280;14306;49.942;11.570;2023-05-23T10:16:43;97405.78;;;27.26;37.30
1371;BME280;14306;49.942;11.570;2023-05-23T10:19:22;97392.75;;;26.72;38.30
1371;BME280;14306;49.942;11.570;2023-05-23T10:21:56;97402.72;;;27.13;37.13
1371;BME280;14306;49.942;11.570;2023-05-23T10:24:26;97416.53;;;27.98;35.22
1371;BME280;14306;49.942;11.570;2023-05-23T10:26:56;97432.63;;;28.13;35.16
1371;BME280;14306;49.942;11.570;2023-05-23T10:29:26;97467.16;;;29.52;33.44
1371;BME280;14306;49.942;11.570;2023-05-23T10:31:58;97460.97;;;29.41;32.99
1371;BME280;14306;49.942;11.570;2023-05-23T10:34:33;97470.50;;;29.44;33.04
1371;BME280;14306;49.942;11.570;2023-05-23T10:37:05;97480.09;;;30.28;32.23
1371;BME280;14306;49.942;11.570;2023-05-23T10:39:51;97463.28;;;29.46;32.63
1371;BME280;14306;49.942;11.570;2023-05-23T10:42:33;97452.78;;;29.31;33.25
1371;BME280;14306;49.942;11.570;2023-05-23T10:45:19;97445.22;;;29.08;32.94
1371;BME280;14306;49.942;11.570;2023-05-23T10:47:51;97497.19;;;31.20;29.87
1371;BME280;14306;49.942;11.570;2023-05-23T10:50:32;97428.63;;;27.84;34.92
1371;BME280;14306;49.942;11.570;2023-05-23T10:53:05;97359.34;;;25.20;39.65
1371;BME280;14306;49.942;11.570;2023-05-23T10:55:35;97374.44;;;25.19;40.31
1371;BME280;14306;49.942;11.570;2023-05-23T10:58:11;97350.31;;;24.85;42.02
1371;BME280;14306;49.942;11.570;2023-05-23T11:01:01;97372.38;;;25.51;40.65
1371;BME280;14306;49.942;11.570;2023-05-23T11:03:36;97366.50;;;25.21;40.76
1371;BME280;14306;49.942;11.570;2023-05-23T11:06:05;97369.31;;;25.14;41.45
1371;BME280;14306;49.942;11.570;2023-05-23T11:08:39;97372.72;;;25.67;40.31
1371;BME280;14306;49.942;11.570;2023-05-23T11:11:15;97390.41;;;26.02;39.06
1371;BME280;14306;49.942;11.570;2023-05-23T11:13:57;97381.81;;;25.68;39.11
1371;BME280;14306;49.942;11.570;2023-05-23T11:16:30;97421.19;;;26.93;36.74
1371;BME280;14306;49.942;11.570;2023-05-23T11:19:23;97424.84;;;27.64;35.70
1371;BME280;14306;49.942;11.570;2023-05-23T11:21:57;97426.72;;;27.41;35.84
1371;BME280;14306;49.942;11.570;2023-05-23T11:24:47;97412.72;;;27.04;36.84
1371;BME280;14306;49.942;11.570;2023-05-23T11:27:17;97393.84;;;26.27;38.36
1371;BME280;14306;49.942;11.570;2023-05-23T11:30:00;97394.38;;;26.04;38.74
1371;BME280;14306;49.942;11.570;2023-05-23T11:32:30;97377.13;;;25.58;39.84
1371;BME280;14306;49.942;11.570;2023-05-23T11:35:02;97363.00;;;24.96;41.05
1371;BME280;14306;49.942;11.570;2023-05-23T11:37:32;97348.34;;;24.22;42.84
1371;BME280;14306;49.942;11.570;2023-05-23T11:40:26;97352.69;;;24.23;43.39
1371;BME280;14306;49.942;11.570;2023-05-23T11:42:55;97386.28;;;25.27;40.79
1371;BME280;14306;49.942;11.570;2023-05-23T11:45:24;97394.00;;;26.02;39.50
1371;BME280;14306;49.942;11.570;2023-05-23T11:47:52;97396.00;;;25.98;39.75
1371;BME280;14306;49.942;11.570;2023-05-23T11:50:23;97407.13;;;26.63;38.15
1371;BME280;14306;49.942;11.570;2023-05-23T11:52:54;97407.28;;;26.32;38.51
1371;BME280;14306;49.942;11.570;2023-05-23T11:55:23;97404.75;;;26.55;38.35
1371;BME280;14306;49.942;11.570;2023-05-23T11:57:55;97398.78;;;25.84;39.58
1371;BME280;14306;49.942;11.570;2023-05-23T12:00:24;97393.00;;;25.54;40.49
1371;BME280;14306;49.942;11.570;2023-05-23T12:02:53;97399.41;;;26.27;38.65
1371;BME280;14306;49.942;11.570;2023-05-23T12:05:23;97386.69;;;25.32;40.07
1371;BME280;14306;49.942;11.570;2023-05-23T12:07:52;97374.06;;;25.07;41.11
1371;BME280;14306;49.942;11.570;2023-05-23T12:10:20;97380.41;;;24.97;41.29
1371;BME280;14306;49.942;11.570;2023-05-23T12:12:55;97393.84;;;25.33;40.15
1371;BME280;14306;49.942;11.570;2023-05-23T12:15:24;97401.88;;;26.11;38.83
1371;BME280;14306;49.942;11.570;2023-05-23T12:17:54;97410.03;;;26.42;37.56
1371;BME280;14306;49.942;11.570;2023-05-23T12:20:25;97412.59;;;26.74;37.28
1371;BME280;14306;49.942;11.570;2023-05-23T12:22:53;97426.19;;;27.09;36.82
1371;BME280;14306;49.942;11.570;2023-05-23T12:25:23;97426.53;;;27.18;36.65
1371;BME280;14306;49.942;11.570;2023-05-23T12:27:52;97424.03;;;27.30;36.40
1371;BME280;14306;49.942;11.570;2023-05-23T12:30:22;97421.19;;;26.93;37.44
1371;BME280;14306;49.942;11.570;2023-05-23T12:32:51;97425.72;;;26.73;37.46
1371;BME280;14306;49.942;11.570;2023-05-23T12:35:19;97422.50;;;26.78;37.65
1371;BME280;14306;49.942;11.570;2023-05-23T12:37:49;97427.44;;;27.01;37.24
1371;BME280;14306;49.942;11.570;2023-05-23T12:40:21;97428.78;;;26.86;37.13
1371;BME280;14306;49.942;11.570;2023-05-23T12:42:50;97426.09;;;26.75;37.60
1371;BME280;14306;49.942;11.570;2023-05-23T12:45:23;97434.66;;;27.39;36.04
1371;BME280;14306;49.942;11.570;2023-05-23T12:47:52;97427.03;;;27.06;36.72
1371;BME280;14306;49.942;11.570;2023-05-23T12:50:21;97419.41;;;26.66;37.56
1371;BME280;14306;49.942;11.570;2023-05-23T12:52:51;97413.94;;;26.52;37.22
1371;BME280;14306;49.942;11.570;2023-05-23T12:55:20;97427.50;;;26.97;36.64
1371;BME280;14306;49.942;11.570;2023-05-23T12:57:49;97427.78;;;27.10;36.23
1371;BME280;14306;49.942;11.570;2023-05-23T13:00:18;97410.28;;;25.97;38.41
1371;BME280;14306;49.942;11.570;2023-05-23T13:02:48;97430.66;;;26.45;37.61
1371;BME280;14306;49.942;11.570;2023-05-23T13:05:17;97396.22;;;25.21;39.89
1371;BME280;14306;49.942;11.570;2023-05-23T13:07:47;97393.88;;;25.02;40.19
1371;BME280;14306;49.942;11.570;2023-05-23T13:10:17;97414.28;;;25.85;39.00
1371;BME280;14306;49.942;11.570;2023-05-23T13:12:46;97408.31;;;25.86;39.22
1371;BME280;14306;49.942;11.570;2023-05-23T13:15:15;97420.47;;;26.21;39.07
1371;BME280;14306;49.942;11.570;2023-05-23T13:17:44;97445.97;;;27.21;37.26